Time;durP1;ratioP1;P1;durP2;ratioP2;P2;SDS_P1;SDS_P2;PMS_P1;PMS_P2;Temp;Humidity;BMP_temperature;BMP_pressure;BME280_temperature;BME280_humidity;BME280_pressure;Samples;Min_cycle;Max_cycle;Signal;HPM_P1;HPM_P2
2021/09/20 00:01:30;;;;;;;2.80;2.60;;;12.10;99.90;;;;;;5033694;28;20172;-77
2021/09/20 00:03:55;;;;;;;3.30;3.10;;;12.10;99.90;;;;;;5033797;28;20650;-78
2021/09/20 00:06:21;;;;;;;2.90;2.70;;;12.10;99.90;;;;;;5033884;28;20641;-80
2021/09/20 00:08:47;;;;;;;3.37;3.17;;;12.00;99.90;;;;;;5032641;28;20525;-77
2021/09/20 00:11:13;;;;;;;2.93;2.73;;;12.00;99.90;;;;;;5033554;28;20183;-77
2021/09/20 00:13:39;;;;;;;3.43;3.13;;;12.10;99.90;;;;;;5029420;28;20290;-78
2021/09/20 00:16:04;;;;;;;3.33;3.13;;;12.10;99.90;;;;;;5033805;28;20170;-79
2021/09/20 00:18:30;;;;;;;2.80;2.60;;;12.10;99.90;;;;;;5035825;28;20542;-79
2021/09/20 00:20:56;;;;;;;3.20;3.00;;;12.10;99.90;;;;;;5035410;28;20175;-79
2021/09/20 00:23:21;;;;;;;3.50;3.30;;;12.00;99.90;;;;;;5037309;28;20177;-78
2021/09/20 00:25:47;;;;;;;3.40;3.20;;;12.10;99.90;;;;;;5035822;28;20174;-78
2021/09/20 00:28:13;;;;;;;3.60;3.30;;;12.00;99.90;;;;;;5030968;28;20183;-77
2021/09/20 00:30:40;;;;;;;3.50;3.20;;;12.10;99.90;;;;;;5023976;28;20208;-77
2021/09/20 00:33:07;;;;;;;3.10;2.90;;;12.10;99.90;;;;;;5035311;28;20173;-78
2021/09/20 00:35:33;;;;;;;3.23;3.03;;;12.20;99.90;;;;;;5035603;28;20172;-78
2021/09/20 00:37:59;;;;;;;3.27;3.07;;;12.20;99.90;;;;;;5036447;28;20203;-78
2021/09/20 00:40:25;;;;;;;3.60;3.30;;;12.20;99.90;;;;;;5035003;28;20258;-78
2021/09/20 00:42:51;;;;;;;3.23;3.03;;;12.20;99.90;;;;;;5025981;28;20177;-77
2021/09/20 00:45:16;;;;;;;2.60;2.40;;;12.30;99.90;;;;;;5018397;28;20193;-77
2021/09/20 00:47:42;;;;;;;3.17;2.97;;;12.30;99.90;;;;;;5027726;28;20189;-77
2021/09/20 00:50:08;;;;;;;4.67;2.87;;;12.30;99.90;;;;;;5028805;28;20671;-77
2021/09/20 00:52:34;;;;;;;3.10;2.90;;;12.30;99.90;;;;;;5008500;28;20184;-77
2021/09/20 00:55:00;;;;;;;3.03;2.83;;;12.40;99.90;;;;;;5034486;28;20194;-78
2021/09/20 00:57:26;;;;;;;3.10;2.90;;;12.30;99.90;;;;;;5034557;28;20261;-78
2021/09/20 00:59:52;;;;;;;2.93;2.73;;;12.30;99.90;;;;;;5033993;28;20276;-77
2021/09/20 01:02:18;;;;;;;3.40;3.20;;;12.30;99.90;;;;;;5034121;28;20188;-77
2021/09/20 01:04:43;;;;;;;3.03;2.73;;;12.30;99.90;;;;;;5035263;28;20182;-77
2021/09/20 01:07:09;;;;;;;2.70;2.60;;;12.30;99.90;;;;;;5034439;28;20189;-77
2021/09/20 01:09:40;;;;;;;2.90;2.70;;;12.30;99.90;;;;;;5018728;28;20229;-78
2021/09/20 01:12:07;;;;;;;3.00;2.80;;;12.30;99.90;;;;;;5028200;28;20171;-78
2021/09/20 01:14:32;;;;;;;3.00;2.80;;;12.40;99.90;;;;;;5026685;28;20192;-78
2021/09/20 01:16:58;;;;;;;2.47;2.37;;;12.30;99.90;;;;;;5024366;28;20171;-78
2021/09/20 01:19:24;;;;;;;2.87;2.67;;;12.40;99.90;;;;;;5032340;28;20708;-78
2021/09/20 01:21:50;;;;;;;2.30;2.20;;;12.30;99.90;;;;;;5035215;28;20166;-78
2021/09/20 01:24:16;;;;;;;2.70;2.50;;;12.20;99.90;;;;;;5035377;28;20209;-78
2021/09/20 01:26:41;;;;;;;2.60;2.40;;;12.30;99.90;;;;;;5030012;28;20175;-77
2021/09/20 01:29:07;;;;;;;2.60;2.40;;;12.30;99.90;;;;;;5035494;28;20229;-78
2021/09/20 01:31:33;;;;;;;2.47;2.37;;;12.20;99.90;;;;;;5034301;28;20653;-77
2021/09/20 01:33:59;;;;;;;2.50;2.20;;;12.20;99.90;;;;;;5039185;28;20208;-78
2021/09/20 01:36:25;;;;;;;2.33;2.20;;;12.20;99.90;;;;;;5038952;28;20186;-77
2021/09/20 01:38:50;;;;;;;2.13;2.03;;;12.30;99.90;;;;;;5038838;28;20175;-77
2021/09/20 01:41:16;;;;;;;2.73;2.40;;;12.30;99.90;;;;;;5026750;28;20186;-78
2021/09/20 01:43:41;;;;;;;2.40;2.20;;;12.30;99.90;;;;;;5035502;28;20253;-78
2021/09/20 01:46:07;;;;;;;2.20;2.00;;;12.30;99.90;;;;;;5037845;28;20209;-77
2021/09/20 01:48:33;;;;;;;2.20;2.10;;;12.30;99.90;;;;;;5036303;28;20186;-77
2021/09/20 01:50:58;;;;;;;2.00;1.90;;;12.30;99.90;;;;;;5025805;28;20593;-77
2021/09/20 01:53:24;;;;;;;2.23;2.13;;;12.30;99.90;;;;;;5038752;28;20548;-78
2021/09/20 01:55:50;;;;;;;2.30;2.10;;;12.30;99.90;;;;;;5034042;28;20178;-78
2021/09/20 01:58:16;;;;;;;2.57;2.37;;;12.40;99.90;;;;;;5026066;28;20633;-78
2021/09/20 02:00:43;;;;;;;2.37;2.17;;;12.40;99.90;;;;;;5035297;28;20217;-78
2021/09/20 02:03:11;;;;;;;2.90;2.07;;;12.40;99.90;;;;;;5037197;28;20181;-78
2021/09/20 02:05:37;;;;;;;2.50;2.30;;;12.40;99.90;;;;;;5031562;28;20177;-77
2021/09/20 02:08:03;;;;;;;1.93;1.83;;;12.40;99.90;;;;;;5011291;28;20204;-78
2021/09/20 02:10:29;;;;;;;2.57;2.37;;;12.50;99.90;;;;;;5027106;28;20190;-78
2021/09/20 02:12:54;;;;;;;2.00;1.90;;;12.50;99.90;;;;;;5036438;28;20170;-77
2021/09/20 02:15:20;;;;;;;2.33;2.23;;;12.50;99.90;;;;;;5028940;28;20213;-78
2021/09/20 02:17:46;;;;;;;2.80;2.60;;;12.50;99.90;;;;;;5038800;28;20169;-78
2021/09/20 02:20:12;;;;;;;2.50;2.40;;;12.40;99.90;;;;;;5036630;28;20218;-78
2021/09/20 02:22:38;;;;;;;2.33;2.23;;;12.40;99.90;;;;;;5035528;28;20253;-78
2021/09/20 02:25:07;;;;;;;2.43;2.33;;;12.40;99.90;;;;;;5004990;28;20277;-78
2021/09/20 02:27:34;;;;;;;2.67;2.47;;;12.30;99.90;;;;;;5015418;28;20654;-78
2021/09/20 02:30:01;;;;;;;3.00;2.80;;;12.40;99.90;;;;;;5005834;28;20196;-78
2021/09/20 02:32:27;;;;;;;3.53;3.30;;;12.40;99.90;;;;;;5031724;28;20173;-78
2021/09/20 02:34:52;;;;;;;3.93;3.70;;;12.40;99.90;;;;;;5029761;28;20285;-78
2021/09/20 02:37:18;;;;;;;3.90;3.53;;;12.50;99.90;;;;;;5036621;28;20174;-78
2021/09/20 02:39:44;;;;;;;4.10;3.70;;;12.50;99.90;;;;;;5035952;28;20225;-78
2021/09/20 02:42:10;;;;;;;4.90;4.50;;;12.40;99.90;;;;;;5027933;28;20194;-78
2021/09/20 02:44:35;;;;;;;5.10;4.60;;;12.30;99.90;;;;;;5026149;28;20224;-78
2021/09/20 02:47:01;;;;;;;5.60;5.10;;;12.30;99.90;;;;;;5023230;28;20181;-78
2021/09/20 02:49:27;;;;;;;5.17;4.67;;;12.20;99.90;;;;;;5024675;28;20209;-78
2021/09/20 02:51:52;;;;;;;5.10;4.60;;;12.20;99.90;;;;;;5034597;28;20173;-78
2021/09/20 02:54:18;;;;;;;5.03;4.63;;;12.20;99.90;;;;;;5026942;28;20197;-78
2021/09/20 02:56:44;;;;;;;5.07;4.77;;;12.30;99.90;;;;;;5020117;28;20229;-78
2021/09/20 02:59:09;;;;;;;5.37;4.97;;;12.20;99.90;;;;;;5035341;28;20189;-78
2021/09/20 03:01:35;;;;;;;5.43;5.03;;;12.30;99.90;;;;;;5036545;28;20184;-78
2021/09/20 03:04:01;;;;;;;6.20;5.60;;;12.30;99.90;;;;;;5037397;28;20633;-78
2021/09/20 03:06:26;;;;;;;5.10;4.80;;;12.40;99.90;;;;;;5036973;28;20182;-78
2021/09/20 03:08:52;;;;;;;6.17;5.67;;;12.40;99.90;;;;;;5032805;28;20697;-78
2021/09/20 03:11:18;;;;;;;6.10;5.63;;;12.40;99.90;;;;;;5027748;28;20176;-78
2021/09/20 03:13:43;;;;;;;7.73;6.87;;;12.40;99.90;;;;;;5036757;28;20551;-78
2021/09/20 03:16:09;;;;;;;7.70;6.93;;;12.50;99.90;;;;;;5036819;28;20177;-78
2021/09/20 03:18:35;;;;;;;7.77;7.07;;;12.50;99.90;;;;;;5036594;28;20177;-78
2021/09/20 03:21:00;;;;;;;7.03;6.43;;;12.50;99.90;;;;;;5030619;28;20175;-77
2021/09/20 03:23:27;;;;;;;7.53;6.83;;;12.50;99.90;;;;;;5028957;28;20181;-78
2021/09/20 03:25:53;;;;;;;7.47;6.40;;;12.50;99.90;;;;;;5022877;28;20209;-78
2021/09/20 03:28:19;;;;;;;6.47;5.97;;;12.50;99.90;;;;;;5037072;28;20241;-77
2021/09/20 03:30:44;;;;;;;6.30;5.80;;;12.50;99.90;;;;;;5035115;28;20196;-77
2021/09/20 03:33:10;;;;;;;6.97;6.37;;;12.50;99.90;;;;;;5033820;28;20269;-78
2021/09/20 03:35:35;;;;;;;6.30;5.80;;;12.50;99.90;;;;;;5024459;28;20187;-78
2021/09/20 03:38:01;;;;;;;6.00;5.50;;;12.50;99.90;;;;;;5020633;28;20268;-78
2021/09/20 03:40:27;;;;;;;6.03;5.60;;;12.60;99.90;;;;;;5052543;22;20240;-84
2021/09/20 03:42:52;;;;;;;6.73;6.23;;;12.50;99.90;;;;;;5022582;28;20650;-84
2021/09/20 03:45:18;;;;;;;5.83;5.33;;;12.50;99.90;;;;;;5022727;28;20264;-84
2021/09/20 03:47:44;;;;;;;6.60;6.10;;;12.50;99.90;;;;;;5022931;28;20209;-85
2021/09/20 03:50:11;;;;;;;6.23;5.80;;;12.50;99.90;;;;;;5018737;28;20203;-85
2021/09/20 03:52:38;;;;;;;5.77;5.30;;;12.40;99.90;;;;;;5008554;28;20185;-85
2021/09/20 03:55:04;;;;;;;6.30;5.70;;;12.40;99.90;;;;;;5009056;28;20213;-85
2021/09/20 03:57:30;;;;;;;6.50;6.00;;;12.50;99.90;;;;;;5005512;28;20203;-86
2021/09/20 03:59:56;;;;;;;6.57;6.07;;;12.40;99.90;;;;;;5021687;28;20209;-86
2021/09/20 04:02:21;;;;;;;6.83;6.23;;;12.40;99.90;;;;;;5015330;28;20170;-84
2021/09/20 04:04:47;;;;;;;6.07;5.57;;;12.40;99.90;;;;;;5019608;28;20201;-85
2021/09/20 04:07:13;;;;;;;6.40;5.80;;;12.40;99.90;;;;;;5020345;28;20174;-85
2021/09/20 04:09:40;;;;;;;5.93;5.53;;;12.50;99.90;;;;;;5022621;28;20228;-85
2021/09/20 04:12:07;;;;;;;7.03;6.53;;;12.60;99.90;;;;;;5022078;28;20201;-85
2021/09/20 04:14:33;;;;;;;6.90;6.40;;;12.50;99.90;;;;;;5020187;28;20233;-85
2021/09/20 04:16:58;;;;;;;7.40;6.80;;;12.60;99.90;;;;;;5015352;28;20178;-85
2021/09/20 04:19:24;;;;;;;6.97;6.23;;;12.60;99.90;;;;;;5024622;28;20638;-86
2021/09/20 04:21:49;;;;;;;6.87;6.27;;;12.70;99.90;;;;;;5015394;28;20186;-86
2021/09/20 04:24:15;;;;;;;7.53;6.93;;;12.60;99.90;;;;;;5005518;28;20236;-85
2021/09/20 04:26:41;;;;;;;7.27;6.30;;;12.60;99.90;;;;;;5003435;28;20642;-84
2021/09/20 04:29:07;;;;;;;6.80;6.30;;;12.50;99.90;;;;;;5002960;28;20191;-85
2021/09/20 04:31:32;;;;;;;8.03;6.57;;;12.50;99.90;;;;;;5004142;28;20231;-85
2021/09/20 04:33:58;;;;;;;6.37;5.87;;;12.30;99.90;;;;;;5008505;28;20799;-87
2021/09/20 04:36:23;;;;;;;6.73;6.23;;;12.30;99.90;;;;;;5024604;28;20705;-85
2021/09/20 04:38:49;;;;;;;7.20;6.50;;;12.30;99.90;;;;;;5023770;28;20262;-85
2021/09/20 04:41:15;;;;;;;9.20;6.77;;;12.30;99.90;;;;;;5026031;28;20210;-85
2021/09/20 04:43:40;;;;;;;7.27;6.67;;;12.40;99.90;;;;;;5033592;28;20186;-86
2021/09/20 04:46:06;;;;;;;6.83;6.30;;;12.30;99.90;;;;;;5022583;28;20181;-85
2021/09/20 04:48:32;;;;;;;7.80;7.10;;;12.30;99.90;;;;;;5023595;28;20190;-86
2021/09/20 04:50:57;;;;;;;7.07;6.47;;;12.30;99.90;;;;;;5018957;28;20296;-86
2021/09/20 04:53:24;;;;;;;7.97;7.37;;;12.20;99.90;;;;;;5022538;28;20180;-85
2021/09/20 04:55:50;;;;;;;6.93;6.43;;;12.30;99.90;;;;;;5026701;28;20196;-85
2021/09/20 04:58:16;;;;;;;6.93;6.33;;;12.40;99.90;;;;;;5023765;28;20177;-85
2021/09/20 05:00:41;;;;;;;7.10;6.60;;;12.40;99.90;;;;;;5018522;28;20203;-86
2021/09/20 05:03:07;;;;;;;6.90;6.30;;;12.50;99.90;;;;;;5007332;28;20672;-86
2021/09/20 05:05:33;;;;;;;6.33;5.83;;;12.30;99.90;;;;;;5020597;28;20179;-85
2021/09/20 05:07:59;;;;;;;5.80;5.40;;;12.40;99.90;;;;;;5020791;28;20183;-86
2021/09/20 05:10:25;;;;;;;6.50;6.00;;;12.50;99.90;;;;;;5012681;28;20202;-85
2021/09/20 05:12:51;;;;;;;6.47;5.87;;;12.40;99.90;;;;;;5016881;28;20175;-85
2021/09/20 05:15:17;;;;;;;6.13;5.63;;;12.40;99.90;;;;;;5026664;28;20265;-85
2021/09/20 05:17:44;;;;;;;6.57;5.97;;;12.30;99.90;;;;;;5025110;28;20175;-85
2021/09/20 05:20:12;;;;;;;6.10;5.60;;;12.30;99.90;;;;;;5025577;28;20202;-86
2021/09/20 05:22:38;;;;;;;5.73;5.23;;;12.30;99.90;;;;;;5024696;28;20190;-86
2021/09/20 05:25:04;;;;;;;5.40;5.00;;;12.40;99.90;;;;;;5023170;28;20653;-85
2021/09/20 05:27:30;;;;;;;5.07;4.67;;;12.30;99.90;;;;;;5025453;28;20258;-86
2021/09/20 05:29:58;;;;;;;6.07;5.47;;;12.30;99.90;;;;;;5024446;28;20634;-86
2021/09/20 05:32:23;;;;;;;5.60;4.73;;;12.30;99.90;;;;;;5022971;28;20210;-85
2021/09/20 05:34:49;;;;;;;5.10;4.70;;;12.30;99.90;;;;;;5026620;28;20194;-85
2021/09/20 05:37:15;;;;;;;5.00;4.67;;;12.30;99.90;;;;;;5029801;28;20242;-85
2021/09/20 05:39:41;;;;;;;5.00;4.60;;;12.40;99.90;;;;;;5032865;28;20214;-85
2021/09/20 05:42:07;;;;;;;4.60;4.20;;;12.40;99.90;;;;;;5028909;28;20182;-85
2021/09/20 05:44:32;;;;;;;4.17;3.87;;;12.50;99.90;;;;;;5023646;28;20265;-85
2021/09/20 05:46:59;;;;;;;4.47;4.13;;;12.50;99.90;;;;;;5022634;28;20615;-85
2021/09/20 05:49:25;;;;;;;4.07;3.77;;;12.50;99.90;;;;;;5010407;28;20264;-85
2021/09/20 05:51:51;;;;;;;6.03;3.77;;;12.50;99.90;;;;;;5016599;28;20183;-85
2021/09/20 05:54:16;;;;;;;4.27;3.97;;;12.50;99.90;;;;;;5022510;28;20228;-85
2021/09/20 05:56:42;;;;;;;4.53;4.20;;;12.50;99.90;;;;;;5021992;28;20545;-86
2021/09/20 05:59:08;;;;;;;4.43;4.07;;;12.60;99.90;;;;;;5022255;28;20184;-85
2021/09/20 06:01:33;;;;;;;4.27;3.97;;;12.70;99.90;;;;;;5023574;28;20201;-85
2021/09/20 06:03:59;;;;;;;4.20;3.80;;;12.60;99.90;;;;;;5023539;28;20196;-86
2021/09/20 06:06:25;;;;;;;4.60;4.20;;;12.60;99.90;;;;;;5020606;28;20190;-86
2021/09/20 06:08:50;;;;;;;4.23;3.93;;;12.70;99.90;;;;;;5020231;28;20214;-86
2021/09/20 06:11:16;;;;;;;4.20;3.90;;;12.70;99.90;;;;;;5023227;28;20256;-86
2021/09/20 06:13:42;;;;;;;4.23;3.93;;;12.70;99.90;;;;;;5011634;28;20207;-85
2021/09/20 06:16:08;;;;;;;3.73;3.50;;;12.70;99.90;;;;;;5023849;28;20190;-84
2021/09/20 06:18:34;;;;;;;3.73;3.43;;;12.70;99.90;;;;;;5013118;28;20181;-85
2021/09/20 06:21:00;;;;;;;4.00;3.70;;;12.70;99.90;;;;;;5018712;28;20205;-84
2021/09/20 06:23:26;;;;;;;3.03;2.83;;;12.70;99.90;;;;;;5024627;28;20186;-85
2021/09/20 06:25:52;;;;;;;3.40;3.20;;;12.70;99.90;;;;;;5032102;28;20179;-85
2021/09/20 06:28:17;;;;;;;3.47;3.27;;;12.70;99.90;;;;;;5023063;28;20241;-85
2021/09/20 06:30:43;;;;;;;3.63;3.43;;;12.80;99.90;;;;;;5022937;28;20203;-85
2021/09/20 06:33:09;;;;;;;3.13;2.93;;;12.80;99.90;;;;;;5033043;28;20727;-85
2021/09/20 06:35:35;;;;;;;3.40;3.10;;;12.80;99.90;;;;;;5023723;28;20200;-85
2021/09/20 06:38:00;;;;;;;3.30;3.10;;;12.80;99.90;;;;;;5020746;28;20191;-85
2021/09/20 06:40:27;;;;;;;3.73;3.40;;;12.80;99.90;;;;;;5023078;28;20225;-85
2021/09/20 06:42:52;;;;;;;3.90;3.50;;;12.80;99.90;;;;;;5020274;28;20265;-85
2021/09/20 06:45:18;;;;;;;4.63;3.23;;;12.80;99.90;;;;;;5016434;28;20203;-85
2021/09/20 06:47:45;;;;;;;3.00;2.80;;;12.90;99.90;;;;;;5019010;28;20176;-85
2021/09/20 06:50:11;;;;;;;3.33;3.03;;;12.90;99.90;;;;;;5023105;28;20199;-84
2021/09/20 06:52:37;;;;;;;2.93;2.73;;;12.90;99.90;;;;;;5024685;28;20181;-85
2021/09/20 06:55:04;;;;;;;3.43;3.10;;;12.90;99.90;;;;;;5022417;28;20759;-84
2021/09/20 06:57:29;;;;;;;3.20;2.90;;;12.90;99.90;;;;;;5023257;28;20231;-84
2021/09/20 06:59:55;;;;;;;3.13;2.80;;;12.90;99.90;;;;;;5034784;28;20198;-84
2021/09/20 07:02:21;;;;;;;3.13;2.90;;;12.90;99.90;;;;;;5022885;28;20185;-85
2021/09/20 07:04:46;;;;;;;3.00;2.80;;;12.90;99.90;;;;;;5022194;28;20186;-84
2021/09/20 07:07:14;;;;;;;3.20;2.90;;;12.90;99.90;;;;;;5021178;28;20186;-85
2021/09/20 07:09:41;;;;;;;3.00;2.80;;;12.90;99.90;;;;;;5018427;28;20257;-85
2021/09/20 07:12:07;;;;;;;2.43;2.23;;;12.90;99.90;;;;;;5023203;28;20175;-85
2021/09/20 07:14:32;;;;;;;2.63;2.43;;;13.00;99.90;;;;;;5020692;28;20199;-85
2021/09/20 07:16:58;;;;;;;2.57;2.37;;;12.90;99.90;;;;;;5020940;28;20193;-85
2021/09/20 07:19:23;;;;;;;2.50;2.30;;;13.00;99.90;;;;;;5020253;28;20185;-85
2021/09/20 07:21:49;;;;;;;2.90;2.13;;;13.00;99.90;;;;;;5019511;28;20175;-85
2021/09/20 07:24:15;;;;;;;2.00;1.90;;;13.00;99.90;;;;;;5019601;28;20186;-85
2021/09/20 07:26:42;;;;;;;1.90;1.80;;;13.00;99.90;;;;;;5019367;28;20194;-85
2021/09/20 07:29:07;;;;;;;2.03;1.93;;;13.00;99.90;;;;;;5019745;28;20654;-84
2021/09/20 07:31:33;;;;;;;1.63;1.53;;;13.00;99.90;;;;;;5017192;28;20256;-85
2021/09/20 07:33:59;;;;;;;1.43;1.30;;;13.00;99.90;;;;;;5019888;28;20733;-85
2021/09/20 07:36:24;;;;;;;2.40;1.57;;;13.00;99.90;;;;;;5019422;28;20235;-85
2021/09/20 07:38:50;;;;;;;1.80;1.70;;;13.00;99.90;;;;;;5017810;28;20277;-84
2021/09/20 07:41:16;;;;;;;1.63;1.50;;;13.00;99.90;;;;;;5005121;28;20218;-85
2021/09/20 07:43:45;;;;;;;2.20;2.00;;;13.00;99.90;;;;;;5016805;28;20182;-87
2021/09/20 07:46:16;;;;;;;2.10;2.00;;;13.00;99.90;;;;;;5013308;28;20198;-87
2021/09/20 07:48:42;;;;;;;2.87;2.53;;;13.10;99.90;;;;;;5018927;28;20219;-85
2021/09/20 07:51:08;;;;;;;2.67;2.30;;;13.10;99.90;;;;;;5019847;28;20728;-85
2021/09/20 07:53:34;;;;;;;2.50;2.30;;;13.10;99.90;;;;;;5017992;28;20629;-85
2021/09/20 07:55:59;;;;;;;2.70;2.50;;;13.10;99.90;;;;;;5018450;28;20209;-86
2021/09/20 07:58:25;;;;;;;2.67;2.47;;;13.20;99.90;;;;;;5017658;28;20175;-86
2021/09/20 08:00:51;;;;;;;2.50;2.30;;;13.10;99.90;;;;;;5018201;28;20202;-85
2021/09/20 08:03:16;;;;;;;2.63;2.43;;;13.20;99.90;;;;;;5013845;28;20228;-85
2021/09/20 08:05:42;;;;;;;2.90;2.70;;;13.20;99.90;;;;;;5015408;28;20182;-86
2021/09/20 08:08:08;;;;;;;2.90;2.70;;;13.20;99.90;;;;;;5017280;28;20186;-86
2021/09/20 08:10:35;;;;;;;2.97;2.77;;;13.30;99.90;;;;;;5015398;28;20742;-85
2021/09/20 08:13:03;;;;;;;3.03;2.83;;;13.30;99.90;;;;;;5018094;28;20267;-86
2021/09/20 08:15:30;;;;;;;3.47;3.17;;;13.30;99.90;;;;;;5018279;28;20206;-85
2021/09/20 08:17:56;;;;;;;3.93;3.60;;;13.20;99.90;;;;;;5019064;28;20183;-86
2021/09/20 08:20:22;;;;;;;3.60;3.30;;;13.30;99.90;;;;;;5016711;28;20274;-86
2021/09/20 08:22:52;;;;;;;3.90;3.60;;;13.30;99.90;;;;;;5017798;28;20185;-86
2021/09/20 08:25:21;;;;;;;3.40;3.20;;;13.30;99.90;;;;;;5018817;28;20182;-85
2021/09/20 08:27:48;;;;;;;3.30;3.10;;;13.30;99.90;;;;;;5017506;28;20183;-86
2021/09/20 08:30:14;;;;;;;3.90;3.43;;;13.30;99.90;;;;;;5018143;28;20231;-87
2021/09/20 08:32:40;;;;;;;3.43;3.23;;;13.30;99.90;;;;;;5018981;28;20194;-86
2021/09/20 08:35:07;;;;;;;4.10;3.70;;;13.30;99.90;;;;;;5019639;28;20734;-86
2021/09/20 08:37:33;;;;;;;3.57;3.27;;;13.20;99.90;;;;;;5019366;28;20541;-86
2021/09/20 08:39:58;;;;;;;3.63;3.43;;;13.20;99.90;;;;;;5017983;28;20211;-86
2021/09/20 08:42:24;;;;;;;4.63;4.23;;;13.30;99.90;;;;;;5020675;28;20175;-86
2021/09/20 08:44:50;;;;;;;4.60;4.20;;;13.30;99.90;;;;;;5024374;28;20179;-86
2021/09/20 08:47:17;;;;;;;4.47;4.17;;;13.30;99.90;;;;;;5024394;28;20258;-86
2021/09/20 08:49:43;;;;;;;5.07;4.67;;;13.40;99.90;;;;;;5020910;28;20202;-86
2021/09/20 08:52:10;;;;;;;5.50;5.00;;;13.40;99.90;;;;;;5025201;28;20664;-86
2021/09/20 08:54:36;;;;;;;5.40;5.10;;;13.50;99.90;;;;;;5026267;28;20202;-85
2021/09/20 08:57:02;;;;;;;6.10;5.70;;;13.50;99.90;;;;;;5028278;28;20183;-86
2021/09/20 08:59:28;;;;;;;6.30;5.80;;;13.40;99.90;;;;;;5034771;28;20561;-86
2021/09/20 09:01:55;;;;;;;6.00;5.60;;;13.50;99.90;;;;;;5025436;28;20171;-87
2021/09/20 09:04:35;;;;;;;6.30;5.90;;;13.50;99.90;;;;;;5024303;28;20281;-87
2021/09/20 09:07:05;;;;;;;6.30;5.80;;;13.50;99.90;;;;;;5022865;28;20182;-86
2021/09/20 09:09:39;;;;;;;6.77;6.27;;;13.50;99.90;;;;;;5018121;28;20210;-86
2021/09/20 09:12:23;;;;;;;7.40;6.80;;;13.60;99.90;;;;;;5039661;28;20273;-87
2021/09/20 09:14:53;;;;;;;9.47;7.30;;;13.70;99.90;;;;;;5021717;28;20201;-85
2021/09/20 09:17:28;;;;;;;8.17;7.37;;;13.70;99.90;;;;;;5024335;28;20180;-87
2021/09/20 09:20:04;;;;;;;8.17;7.47;;;13.70;99.90;;;;;;5024842;28;20195;-87
2021/09/20 09:22:51;;;;;;;7.53;6.93;;;13.70;99.90;;;;;;5019717;28;20223;-87
2021/09/20 09:25:33;;;;;;;7.77;7.13;;;13.70;99.90;;;;;;5021894;28;20179;-87
2021/09/20 09:28:02;;;;;;;8.57;7.87;;;13.70;99.90;;;;;;5024226;28;20177;-86
2021/09/20 09:30:43;;;;;;;8.60;7.90;;;13.70;99.90;;;;;;5024049;28;20209;-86
2021/09/20 09:33:11;;;;;;;8.37;7.47;;;13.70;99.90;;;;;;5022981;28;20273;-87
2021/09/20 09:35:43;;;;;;;8.37;7.77;;;13.70;99.90;;;;;;5022387;28;20202;-86
2021/09/20 09:38:09;;;;;;;7.53;6.90;;;13.80;99.90;;;;;;5022600;28;20665;-86
2021/09/20 09:40:47;;;;;;;8.30;7.70;;;13.70;99.90;;;;;;5023721;28;20244;-86
2021/09/20 09:43:21;;;;;;;8.33;7.63;;;13.70;99.90;;;;;;5020042;28;20548;-86
2021/09/20 09:45:47;;;;;;;8.63;8.00;;;13.70;99.90;;;;;;5011747;28;20258;-86
2021/09/20 09:48:17;;;;;;;9.07;8.27;;;13.80;99.90;;;;;;5003097;28;20597;-87
2021/09/20 09:50:46;;;;;;;7.50;6.90;;;13.80;99.90;;;;;;5003325;28;20203;-86
2021/09/20 09:53:35;;;;;;;7.83;7.17;;;13.70;99.90;;;;;;5003553;28;20189;-86
2021/09/20 09:56:19;;;;;;;8.10;7.40;;;13.70;99.90;;;;;;5015023;28;20218;-86
2021/09/20 09:58:52;;;;;;;7.30;6.70;;;13.70;99.90;;;;;;5022813;28;20654;-86
2021/09/20 10:01:21;;;;;;;8.53;7.57;;;13.70;99.90;;;;;;5019669;28;20206;-86
2021/09/20 10:04:09;;;;;;;10.00;9.10;;;13.70;99.90;;;;;;5018199;28;20199;-86
2021/09/20 10:06:56;;;;;;;8.77;8.07;;;13.80;99.90;;;;;;5019098;28;20241;-86
2021/09/20 10:09:28;;;;;;;8.60;7.90;;;13.80;99.90;;;;;;5009688;28;20218;-86
2021/09/20 10:11:56;;;;;;;7.33;6.73;;;13.90;99.90;;;;;;5004808;28;20190;-87
2021/09/20 10:14:22;;;;;;;8.03;7.33;;;13.80;99.90;;;;;;5021286;28;20210;-86
2021/09/20 10:16:55;;;;;;;8.20;7.60;;;13.80;99.90;;;;;;5005617;28;20721;-86
2021/09/20 10:19:21;;;;;;;7.80;7.20;;;13.80;99.90;;;;;;5018575;28;20259;-86
2021/09/20 10:21:48;;;;;;;8.80;8.10;;;13.90;99.90;;;;;;5016588;28;20214;-86
2021/09/20 10:24:15;;;;;;;9.30;8.43;;;13.90;99.90;;;;;;5018407;28;20267;-87
2021/09/20 10:26:41;;;;;;;6.97;6.43;;;13.90;99.90;;;;;;5017492;28;20186;-86
2021/09/20 10:29:11;;;;;;;7.30;6.70;;;13.90;99.90;;;;;;5016738;28;20190;-86
2021/09/20 10:31:40;;;;;;;6.83;6.23;;;13.90;99.90;;;;;;5017550;28;20190;-86
2021/09/20 10:34:18;;;;;;;9.50;8.60;;;13.90;99.90;;;;;;5009357;28;20207;-85
2021/09/20 10:36:48;;;;;;;7.67;7.07;;;13.90;99.90;;;;;;5005773;28;20171;-87
2021/09/20 10:39:14;;;;;;;8.60;8.00;;;13.90;99.90;;;;;;5017363;28;20230;-86
2021/09/20 10:41:40;;;;;;;8.97;8.00;;;14.00;99.90;;;;;;5018434;28;20183;-86
2021/09/20 10:44:08;;;;;;;9.53;8.80;;;14.00;99.90;;;;;;5018139;28;20597;-86
2021/09/20 10:46:40;;;;;;;8.70;7.97;;;14.10;99.90;;;;;;5016760;28;20187;-86
2021/09/20 10:49:17;;;;;;;7.43;6.83;;;14.00;99.90;;;;;;5018578;28;20245;-86
2021/09/20 10:52:03;;;;;;;8.67;7.97;;;14.00;99.90;;;;;;5021896;28;20175;-87
2021/09/20 10:54:29;;;;;;;8.97;8.07;;;14.00;99.90;;;;;;5005952;28;20667;-86
2021/09/20 10:57:19;;;;;;;8.30;7.50;;;14.10;99.90;;;;;;5010656;28;20222;-86
2021/09/20 10:59:45;;;;;;;6.90;6.40;;;14.10;99.90;;;;;;5013084;28;20231;-86
2021/09/20 11:02:22;;;;;;;8.13;7.53;;;14.10;99.90;;;;;;5011706;28;20757;-87
2021/09/20 11:04:48;;;;;;;9.00;8.30;;;14.20;99.90;;;;;;5011682;28;20677;-87
2021/09/20 11:07:20;;;;;;;8.37;7.77;;;14.30;99.90;;;;;;5008396;28;20234;-86
2021/09/20 11:09:52;;;;;;;7.77;7.17;;;14.30;99.90;;;;;;5008390;28;20286;-86
2021/09/20 11:12:23;;;;;;;7.47;6.77;;;14.30;99.90;;;;;;5012242;28;20714;-86
2021/09/20 11:15:12;;;;;;;8.00;6.77;;;14.30;99.90;;;;;;5009604;28;20237;-86
2021/09/20 11:17:42;;;;;;;7.13;6.43;;;14.40;99.90;;;;;;5013533;28;20176;-87
2021/09/20 11:20:21;;;;;;;7.37;6.77;;;14.50;99.90;;;;;;5012988;28;20587;-87
2021/09/20 11:22:47;;;;;;;6.07;5.63;;;14.50;99.90;;;;;;5014241;28;20237;-87
2021/09/20 11:25:15;;;;;;;6.80;6.20;;;14.60;99.90;;;;;;5013020;28;20650;-86
2021/09/20 11:27:49;;;;;;;6.83;6.23;;;14.60;99.90;;;;;;5008979;28;20182;-86
2021/09/20 11:30:17;;;;;;;7.73;7.10;;;14.60;99.90;;;;;;5012520;28;20211;-86
2021/09/20 11:32:47;;;;;;;8.43;7.67;;;14.60;99.90;;;;;;5008949;28;20646;-86
2021/09/20 11:35:14;;;;;;;8.07;7.47;;;14.80;99.90;;;;;;5025371;28;20202;-87
2021/09/20 11:37:40;;;;;;;7.27;6.67;;;14.80;99.90;;;;;;5029915;28;20187;-86
2021/09/20 11:40:12;;;;;;;5.73;5.20;;;14.90;99.90;;;;;;5010151;28;20207;-86
2021/09/20 11:42:38;;;;;;;5.27;4.83;;;14.90;99.90;;;;;;5004155;28;20176;-86
2021/09/20 11:45:17;;;;;;;6.37;5.87;;;14.90;99.90;;;;;;5011648;28;20262;-87
2021/09/20 11:47:46;;;;;;;7.00;5.30;;;;;;;;;;5010285;28;20183;-86
2021/09/20 11:50:27;;;;;;;5.93;5.40;;;15.10;99.90;;;;;;5012610;28;20195;-86
2021/09/20 11:52:55;;;;;;;5.73;5.23;;;15.00;99.90;;;;;;5013954;28;20206;-86
2021/09/20 11:55:27;;;;;;;5.93;5.53;;;15.10;99.90;;;;;;5013653;28;20210;-87
2021/09/20 11:58:02;;;;;;;6.03;5.63;;;15.10;99.90;;;;;;5011180;28;20306;-87
2021/09/20 12:00:30;;;;;;;5.57;4.83;;;15.10;99.90;;;;;;5014282;28;20225;-86
2021/09/20 12:02:58;;;;;;;6.53;5.90;;;15.20;99.90;;;;;;5014235;28;20171;-87
2021/09/20 12:05:26;;;;;;;5.97;5.40;;;15.20;99.90;;;;;;5021703;28;20181;-86
2021/09/20 12:07:58;;;;;;;5.17;4.67;;;15.30;99.90;;;;;;5016462;28;20218;-87
2021/09/20 12:10:26;;;;;;;4.77;4.47;;;15.30;99.90;;;;;;5035817;28;20199;-87
2021/09/20 12:12:54;;;;;;;4.70;4.37;;;15.40;99.90;;;;;;5019628;28;20206;-87
2021/09/20 12:15:26;;;;;;;4.23;3.93;;;15.50;99.90;;;;;;5014925;28;20207;-87
2021/09/20 12:17:57;;;;;;;3.83;3.53;;;15.60;99.90;;;;;;5017956;28;20167;-85
2021/09/20 12:20:45;;;;;;;4.10;3.80;;;15.60;99.90;;;;;;5023840;28;20278;-87
2021/09/20 12:23:15;;;;;;;6.00;3.67;;;15.70;99.90;;;;;;5008564;28;20189;-87
2021/09/20 12:25:47;;;;;;;4.73;4.03;;;15.70;99.90;;;;;;5015446;28;20535;-87
2021/09/20 12:28:39;;;;;;;3.77;3.47;;;15.80;99.90;;;;;;5016566;28;20591;-87
2021/09/20 12:31:12;;;;;;;4.33;3.70;;;15.90;99.90;;;;;;5012334;28;20255;-86
2021/09/20 12:33:51;;;;;;;4.77;4.47;;;15.90;99.90;;;;;;5023145;28;20178;-87
2021/09/20 12:36:18;;;;;;;4.83;4.37;;;15.90;99.90;;;;;;5014771;28;20262;-87
2021/09/20 12:38:43;;;;;;;4.83;4.43;;;15.80;99.90;;;;;;5016869;28;20215;-87
2021/09/20 12:41:12;;;;;;;5.07;4.67;;;15.90;99.90;;;;;;5014054;28;20220;-87
2021/09/20 12:43:39;;;;;;;4.33;3.93;;;15.90;99.90;;;;;;5015442;28;20171;-86
2021/09/20 12:46:18;;;;;;;4.40;3.97;;;15.90;99.90;;;;;;5016993;28;20183;-87
2021/09/20 12:48:46;;;;;;;5.10;4.70;;;15.90;99.90;;;;;;5006466;28;20206;-87
2021/09/20 12:51:14;;;;;;;3.87;3.47;;;16.00;99.90;;;;;;5017011;28;20580;-86